createdAt,value
2018-02-22T00:00:24.842Z,0
2018-02-22T00:01:05.393Z,0
2018-02-22T00:01:45.945Z,0
2018-02-22T00:02:26.518Z,0
2018-02-22T00:03:07.122Z,0
2018-02-22T00:03:47.669Z,0
2018-02-22T00:04:28.225Z,0
2018-02-22T00:05:08.790Z,0
2018-02-22T00:05:49.342Z,0
2018-02-22T00:06:29.881Z,0
2018-02-22T00:07:10.444Z,0
2018-02-22T00:07:51.009Z,0
2018-02-22T00:08:31.553Z,0
2018-02-22T00:09:12.123Z,0
2018-02-22T00:09:52.695Z,0
2018-02-22T00:10:33.258Z,0
2018-02-22T00:11:13.812Z,0
2018-02-22T00:11:54.353Z,0
2018-02-22T00:12:34.891Z,0
2018-02-22T00:13:15.443Z,0
2018-02-22T00:13:56.005Z,0
2018-02-22T00:14:36.584Z,0
2018-02-22T00:15:17.213Z,0
2018-02-22T00:15:57.762Z,0
2018-02-22T00:16:38.328Z,0
2018-02-22T00:17:18.921Z,0
2018-02-22T00:17:59.447Z,0
2018-02-22T00:18:39.995Z,0
2018-02-22T00:19:20.568Z,0
2018-02-22T00:20:01.109Z,0
2018-02-22T00:20:41.692Z,0
2018-02-22T00:21:22.240Z,0
2018-02-22T00:22:02.809Z,0
2018-02-22T00:22:43.363Z,0
2018-02-22T00:23:23.924Z,0
2018-02-22T00:24:04.475Z,0
2018-02-22T00:24:45.031Z,0
2018-02-22T00:25:25.595Z,0
2018-02-22T00:26:06.171Z,0
2018-02-22T00:26:46.724Z,0
2018-02-22T00:27:27.279Z,0
2018-02-22T00:28:07.827Z,0
2018-02-22T00:28:48.412Z,0
2018-02-22T00:29:28.957Z,0
2018-02-22T00:30:09.551Z,0
2018-02-22T00:30:50.113Z,0
2018-02-22T00:31:30.666Z,0
2018-02-22T00:32:11.212Z,0
2018-02-22T00:32:51.818Z,0
2018-02-22T00:33:32.354Z,0
2018-02-22T00:34:12.891Z,0
2018-02-22T00:34:53.471Z,0
2018-02-22T00:35:33.999Z,0
2018-02-22T00:36:14.544Z,0
2018-02-22T00:36:55.097Z,0
2018-02-22T00:37:35.645Z,0
2018-02-22T00:38:16.205Z,0
2018-02-22T00:38:56.763Z,0
2018-02-22T00:39:37.339Z,0
2018-02-22T00:40:17.898Z,0
2018-02-22T00:40:58.483Z,0
2018-02-22T00:41:39.036Z,0
2018-02-22T00:42:19.616Z,0
2018-02-22T00:43:00.164Z,0
2018-02-22T00:43:40.724Z,0
2018-02-22T00:44:21.283Z,0
2018-02-22T00:45:01.826Z,0
2018-02-22T00:45:42.442Z,0
2018-02-22T00:46:22.991Z,0
2018-02-22T00:47:03.563Z,0
2018-02-22T00:47:44.120Z,0
2018-02-22T00:48:24.705Z,0
2018-02-22T00:49:05.274Z,0
2018-02-22T00:49:45.832Z,0
2018-02-22T00:50:26.384Z,0
2018-02-22T00:51:06.939Z,0
2018-02-22T00:51:47.480Z,0
2018-02-22T00:52:28.037Z,0
2018-02-22T00:53:08.650Z,0
2018-02-22T00:53:49.214Z,0
2018-02-22T00:54:29.759Z,0
2018-02-22T00:55:10.329Z,0
2018-02-22T00:55:50.879Z,0
2018-02-22T00:56:31.436Z,0
2018-02-22T00:57:12.012Z,0
2018-02-22T00:57:52.561Z,0
2018-02-22T00:58:33.105Z,0
2018-02-22T00:59:13.647Z,0
2018-02-22T00:59:54.186Z,0
2018-02-22T01:00:34.746Z,0
2018-02-22T01:01:15.322Z,0
2018-02-22T01:01:55.879Z,0
2018-02-22T01:02:36.431Z,0
2018-02-22T01:03:16.992Z,0
2018-02-22T01:03:57.610Z,0
2018-02-22T01:04:38.311Z,0
2018-02-22T01:05:18.877Z,0
2018-02-22T01:05:59.414Z,0
2018-02-22T01:06:40.057Z,0
2018-02-22T01:07:20.629Z,0
2018-02-22T01:08:01.249Z,0
2018-02-22T01:08:41.798Z,0
2018-02-22T01:09:22.353Z,0
2018-02-22T01:10:02.897Z,0
2018-02-22T01:10:43.518Z,0
2018-02-22T01:11:24.074Z,0
2018-02-22T01:12:04.627Z,0
2018-02-22T01:12:45.173Z,0
2018-02-22T01:13:25.739Z,0
2018-02-22T01:14:06.293Z,0
2018-02-22T01:14:46.841Z,0
2018-02-22T01:15:27.388Z,0
2018-02-22T01:16:07.955Z,0
2018-02-22T01:16:48.506Z,0
2018-02-22T01:17:29.078Z,0
2018-02-22T01:18:09.795Z,0
2018-02-22T01:18:50.366Z,0
2018-02-22T01:19:30.914Z,0
2018-02-22T01:20:11.466Z,0
2018-02-22T01:20:52.037Z,0
2018-02-22T01:21:32.577Z,0
2018-02-22T01:22:13.212Z,0
2018-02-22T01:22:53.794Z,0
2018-02-22T01:23:34.326Z,0
2018-02-22T01:24:14.984Z,0
2018-02-22T01:24:56.155Z,0
2018-02-22T01:25:36.889Z,0
2018-02-22T01:26:17.428Z,0
2018-02-22T01:26:57.970Z,0
2018-02-22T01:27:38.540Z,0
2018-02-22T01:28:19.109Z,0
2018-02-22T01:28:59.682Z,0
2018-02-22T01:29:40.213Z,0
2018-02-22T01:30:20.771Z,0
2018-02-22T01:31:01.380Z,0
2018-02-22T01:31:41.931Z,0
2018-02-22T01:32:22.533Z,0
2018-02-22T01:33:03.128Z,0
2018-02-22T01:33:43.741Z,0
2018-02-22T01:34:24.277Z,0
2018-02-22T01:35:04.912Z,0
2018-02-22T01:35:45.531Z,0
2018-02-22T01:36:26.086Z,0
2018-02-22T01:37:06.715Z,0
2018-02-22T01:37:47.272Z,0
2018-02-22T01:38:28.112Z,0
2018-02-22T01:39:08.988Z,0
2018-02-22T01:39:49.529Z,0
2018-02-22T01:40:30.058Z,0
2018-02-22T01:41:10.618Z,0
2018-02-22T01:41:51.185Z,0
2018-02-22T01:42:31.758Z,0
2018-02-22T01:43:12.323Z,0
2018-02-22T01:43:52.884Z,0
2018-02-22T01:44:33.437Z,0
2018-02-22T01:45:14.042Z,0
2018-02-22T01:45:54.681Z,0
2018-02-22T01:46:35.213Z,0
2018-02-22T01:47:15.768Z,0
2018-02-22T01:47:56.309Z,0
2018-02-22T01:48:36.893Z,0
2018-02-22T01:49:17.458Z,0
2018-02-22T01:49:57.971Z,0
2018-02-22T01:50:38.554Z,0
2018-02-22T01:51:19.144Z,0
2018-02-22T01:51:59.700Z,0
2018-02-22T01:52:40.323Z,0
2018-02-22T01:53:20.842Z,0
2018-02-22T01:54:01.425Z,0
2018-02-22T01:54:41.975Z,0
2018-02-22T01:55:22.538Z,0
2018-02-22T01:56:03.090Z,0
2018-02-22T01:56:43.653Z,0
2018-02-22T01:57:24.233Z,0
2018-02-22T01:58:04.787Z,0
2018-02-22T01:58:45.337Z,0
2018-02-22T01:59:25.920Z,0
2018-02-22T02:00:06.471Z,0
2018-02-22T02:00:47.016Z,0
2018-02-22T02:01:27.561Z,0
2018-02-22T02:02:08.120Z,0
2018-02-22T02:02:48.784Z,0
2018-02-22T02:03:29.260Z,0
2018-02-22T02:04:09.798Z,0
2018-02-22T02:04:50.431Z,0
2018-02-22T02:05:30.914Z,0
2018-02-22T02:06:11.480Z,0
2018-02-22T02:06:52.024Z,0
2018-02-22T02:07:32.577Z,0
2018-02-22T02:08:13.134Z,0
2018-02-22T02:08:53.714Z,0
2018-02-22T02:09:34.313Z,0
2018-02-22T02:10:14.878Z,0
2018-02-22T02:10:55.488Z,0
2018-02-22T02:11:36.118Z,0
2018-02-22T02:12:16.666Z,0
2018-02-22T02:12:57.206Z,0
2018-02-22T02:13:37.769Z,0
2018-02-22T02:14:18.310Z,0
2018-02-22T02:14:58.875Z,0
2018-02-22T02:15:39.428Z,0
2018-02-22T02:16:20.016Z,0
2018-02-22T02:17:00.604Z,0
2018-02-22T02:17:41.202Z,0
2018-02-22T02:18:21.759Z,0
2018-02-22T02:19:02.345Z,0
2018-02-22T02:19:42.862Z,0
2018-02-22T02:20:23.431Z,0
2018-02-22T02:21:03.995Z,0
2018-02-22T02:21:44.568Z,0
2018-02-22T02:22:25.125Z,0
2018-02-22T02:23:05.691Z,0
2018-02-22T02:23:46.283Z,0
2018-02-22T02:24:27.002Z,0
2018-02-22T02:25:07.530Z,0
2018-02-22T02:25:48.086Z,0
2018-02-22T02:26:28.626Z,0
2018-02-22T02:27:09.168Z,0
2018-02-22T02:27:49.901Z,0
2018-02-22T02:28:30.501Z,0
2018-02-22T02:29:11.059Z,0
2018-02-22T02:29:51.609Z,0
2018-02-22T02:30:32.187Z,0
2018-02-22T02:31:12.740Z,0
2018-02-22T02:31:53.298Z,0
2018-02-22T02:32:33.840Z,0
2018-02-22T02:33:14.454Z,0
2018-02-22T02:33:55.011Z,0
2018-02-22T02:34:35.575Z,0
2018-02-22T02:35:16.127Z,0
2018-02-22T02:35:56.682Z,0
2018-02-22T02:36:37.240Z,0
2018-02-22T02:37:17.793Z,0
2018-02-22T02:37:58.363Z,0
2018-02-22T02:38:38.909Z,0
2018-02-22T02:39:19.455Z,0
2018-02-22T02:40:00.003Z,0
2018-02-22T02:40:40.569Z,0
2018-02-22T02:41:21.139Z,0
2018-02-22T02:42:01.690Z,0
2018-02-22T02:42:42.254Z,0
2018-02-22T02:43:22.808Z,0
2018-02-22T02:44:03.368Z,0
2018-02-22T02:44:43.925Z,0
2018-02-22T02:45:24.506Z,0
2018-02-22T02:46:05.054Z,0
2018-02-22T02:46:45.604Z,0
2018-02-22T02:47:26.181Z,0
2018-02-22T02:48:06.734Z,0
2018-02-22T02:48:47.303Z,0
2018-02-22T02:49:27.868Z,0
2018-02-22T02:50:08.455Z,0
2018-02-22T02:50:48.996Z,0
2018-02-22T02:51:29.570Z,0
2018-02-22T02:52:10.128Z,0
2018-02-22T02:52:50.684Z,0
2018-02-22T02:53:31.245Z,0
2018-02-22T02:54:11.798Z,0
2018-02-22T02:54:52.365Z,0
2018-02-22T02:55:32.889Z,0
2018-02-22T02:56:13.448Z,0
2018-02-22T02:56:54.008Z,0
2018-02-22T02:57:34.550Z,0
2018-02-22T02:58:15.101Z,0
2018-02-22T02:58:55.651Z,0
2018-02-22T02:59:36.233Z,0
2018-02-22T03:00:16.784Z,0
2018-02-22T03:00:57.368Z,0
2018-02-22T03:01:37.933Z,0
2018-02-22T03:02:18.495Z,0
2018-02-22T03:02:59.062Z,0
2018-02-22T03:03:39.619Z,0
2018-02-22T03:04:20.172Z,0
2018-02-22T03:05:00.753Z,0
2018-02-22T03:05:41.321Z,0
2018-02-22T03:06:21.857Z,0
2018-02-22T03:07:02.455Z,0
2018-02-22T03:07:43.002Z,0
2018-02-22T03:08:23.560Z,0
2018-02-22T03:09:04.144Z,0
2018-02-22T03:09:44.897Z,0
2018-02-22T03:10:25.466Z,0
2018-02-22T03:11:06.025Z,0
2018-02-22T03:11:46.586Z,0
2018-02-22T03:12:27.135Z,0
2018-02-22T03:13:07.692Z,0
2018-02-22T03:13:48.223Z,0
2018-02-22T03:14:28.784Z,0
2018-02-22T03:15:09.341Z,0
2018-02-22T03:15:49.912Z,0
2018-02-22T03:16:30.471Z,0
2018-02-22T03:17:11.026Z,0
2018-02-22T03:17:51.563Z,0
2018-02-22T03:18:32.119Z,0
2018-02-22T03:19:12.691Z,0
2018-02-22T03:19:53.250Z,0
2018-02-22T03:20:33.808Z,0
2018-02-22T03:21:14.357Z,0
2018-02-22T03:21:54.919Z,0
2018-02-22T03:22:35.486Z,0
2018-02-22T03:23:16.020Z,0
2018-02-22T03:23:56.607Z,0
2018-02-22T03:24:37.160Z,0
2018-02-22T03:25:17.752Z,0
2018-02-22T03:25:58.317Z,0
2018-02-22T03:26:38.860Z,0
2018-02-22T03:27:19.429Z,0
2018-02-22T03:27:59.980Z,0
2018-02-22T03:28:40.529Z,0
2018-02-22T03:29:21.067Z,0
2018-02-22T03:30:01.623Z,0
2018-02-22T03:30:42.208Z,0
2018-02-22T03:31:22.711Z,0
2018-02-22T03:32:03.293Z,0
2018-02-22T03:32:43.853Z,0
2018-02-22T03:33:24.397Z,0
2018-02-22T03:34:04.963Z,0
2018-02-22T03:34:45.514Z,0
2018-02-22T03:35:26.071Z,0
2018-02-22T03:36:06.680Z,0
2018-02-22T03:36:47.247Z,0
2018-02-22T03:37:27.793Z,0
2018-02-22T03:38:08.349Z,0
2018-02-22T03:38:48.896Z,0
2018-02-22T03:39:29.444Z,0
2018-02-22T03:40:10.001Z,0
2018-02-22T03:40:50.548Z,0
2018-02-22T03:41:31.126Z,0
2018-02-22T03:42:11.806Z,0
2018-02-22T03:42:52.618Z,0
2018-02-22T03:43:33.201Z,0
2018-02-22T03:44:13.825Z,0
2018-02-22T03:44:54.386Z,0
2018-02-22T03:45:35.260Z,0
2018-02-22T03:46:16.210Z,0
2018-02-22T03:46:57.039Z,0
2018-02-22T03:47:37.774Z,0
2018-02-22T03:48:18.502Z,0
2018-02-22T03:48:59.055Z,0
2018-02-22T03:49:39.595Z,0
2018-02-22T03:50:20.133Z,0
2018-02-22T03:51:00.864Z,0
2018-02-22T03:51:41.363Z,0
2018-02-22T03:52:21.913Z,0
2018-02-22T03:53:02.631Z,0
2018-02-22T03:53:43.383Z,0
2018-02-22T03:54:24.333Z,0
2018-02-22T03:55:05.099Z,0
2018-02-22T03:55:45.797Z,0
2018-02-22T03:56:26.898Z,0
2018-02-22T03:57:07.699Z,0
2018-02-22T03:57:48.473Z,0
2018-02-22T03:58:29.441Z,0
2018-02-22T03:59:10.010Z,0
2018-02-22T03:59:50.572Z,0
2018-02-22T04:00:31.552Z,0
2018-02-22T04:01:12.178Z,0
2018-02-22T04:01:52.750Z,0
2018-02-22T04:02:33.298Z,0
2018-02-22T04:03:13.861Z,0
2018-02-22T04:03:54.404Z,0
2018-02-22T04:04:34.968Z,0
2018-02-22T04:05:15.511Z,0
2018-02-22T04:05:56.068Z,0
2018-02-22T04:06:36.622Z,0
2018-02-22T04:07:17.172Z,0
2018-02-22T04:07:57.733Z,0
2018-02-22T04:08:38.285Z,0
2018-02-22T04:09:18.821Z,0
2018-02-22T04:09:59.383Z,0
2018-02-22T04:10:39.934Z,0
2018-02-22T04:11:20.474Z,0
2018-02-22T04:12:01.030Z,0
2018-02-22T04:12:41.585Z,0
2018-02-22T04:13:22.134Z,0
2018-02-22T04:14:02.687Z,0
2018-02-22T04:14:43.259Z,0
2018-02-22T04:15:23.829Z,0
2018-02-22T04:16:04.372Z,0
2018-02-22T04:16:44.916Z,0
2018-02-22T04:17:25.463Z,0
2018-02-22T04:18:06.049Z,0
2018-02-22T04:18:46.594Z,0
2018-02-22T04:19:27.144Z,0
2018-02-22T04:20:07.724Z,0
2018-02-22T04:20:48.278Z,0
2018-02-22T04:21:28.833Z,0
2018-02-22T04:22:09.392Z,0
2018-02-22T04:22:49.950Z,0
2018-02-22T04:23:30.519Z,0
2018-02-22T04:24:11.049Z,0
2018-02-22T04:24:51.655Z,0
2018-02-22T04:25:32.213Z,0
2018-02-22T04:26:12.789Z,0
2018-02-22T04:26:53.346Z,0
2018-02-22T04:27:34.080Z,0
2018-02-22T04:28:14.643Z,0
2018-02-22T04:28:55.199Z,0
2018-02-22T04:29:35.751Z,0
2018-02-22T04:30:16.300Z,0
2018-02-22T04:30:56.858Z,0
2018-02-22T04:31:37.408Z,0
2018-02-22T04:32:17.960Z,0
2018-02-22T04:32:58.511Z,0
2018-02-22T04:33:39.156Z,0
2018-02-22T04:34:19.714Z,0
2018-02-22T04:35:00.267Z,0
2018-02-22T04:35:40.810Z,0
2018-02-22T04:36:21.372Z,0
2018-02-22T04:37:01.927Z,0
2018-02-22T04:37:42.466Z,0
2018-02-22T04:38:23.020Z,0
2018-02-22T04:39:03.555Z,0
2018-02-22T04:39:44.115Z,0
2018-02-22T04:40:24.661Z,0
2018-02-22T04:41:05.222Z,0
2018-02-22T04:41:45.774Z,0
2018-02-22T04:42:26.329Z,0
2018-02-22T04:43:06.900Z,0
2018-02-22T04:43:47.450Z,0
2018-02-22T04:44:27.995Z,0
2018-02-22T04:45:08.556Z,0
2018-02-22T04:45:49.100Z,0
2018-02-22T04:46:29.637Z,0
2018-02-22T04:47:10.188Z,0
2018-02-22T04:47:50.737Z,0
2018-02-22T04:48:31.279Z,0
2018-02-22T04:49:11.840Z,0
2018-02-22T04:49:52.395Z,0
2018-02-22T04:50:32.939Z,0
2018-02-22T04:51:13.498Z,0
2018-02-22T04:51:54.045Z,0
2018-02-22T04:52:34.581Z,0
2018-02-22T04:53:15.143Z,0
2018-02-22T04:53:55.698Z,0
2018-02-22T04:54:36.291Z,0
2018-02-22T04:55:16.817Z,0
2018-02-22T04:55:57.363Z,0
2018-02-22T04:56:37.914Z,0
2018-02-22T04:57:18.459Z,0
2018-02-22T04:57:59.000Z,0
2018-02-22T04:58:39.554Z,0
2018-02-22T04:59:20.124Z,0
2018-02-22T05:00:00.658Z,0
2018-02-22T05:00:41.208Z,0
2018-02-22T05:01:21.759Z,0
2018-02-22T05:02:02.316Z,0
2018-02-22T05:02:42.870Z,0
2018-02-22T05:03:23.418Z,0
2018-02-22T05:04:03.973Z,0
2018-02-22T05:04:44.524Z,0
2018-02-22T05:05:25.072Z,0
2018-02-22T05:06:05.613Z,0
2018-02-22T05:06:46.173Z,0
2018-02-22T05:07:26.730Z,0
2018-02-22T05:08:07.272Z,0
2018-02-22T05:08:47.829Z,0
2018-02-22T05:09:28.384Z,0
2018-02-22T05:10:08.933Z,0
2018-02-22T05:10:49.484Z,0
2018-02-22T05:11:30.032Z,0
2018-02-22T05:12:10.592Z,0
2018-02-22T05:12:51.136Z,0
2018-02-22T05:13:31.684Z,0
2018-02-22T05:14:12.289Z,0
2018-02-22T05:14:52.787Z,0
2018-02-22T05:15:33.348Z,0
2018-02-22T05:16:13.896Z,0
2018-02-22T05:16:54.444Z,0
2018-02-22T05:17:34.989Z,0
2018-02-22T05:18:15.558Z,0
2018-02-22T05:18:56.095Z,0
2018-02-22T05:19:36.673Z,0
2018-02-22T05:20:17.215Z,0
2018-02-22T05:20:57.763Z,0
2018-02-22T05:21:38.327Z,0
2018-02-22T05:22:18.876Z,0
2018-02-22T05:22:59.426Z,0
2018-02-22T05:23:39.984Z,0
2018-02-22T05:24:20.549Z,0
2018-02-22T05:25:01.112Z,0
2018-02-22T05:25:41.684Z,0
2018-02-22T05:26:22.232Z,0
2018-02-22T05:27:02.818Z,0
2018-02-22T05:27:43.370Z,0
2018-02-22T05:28:23.929Z,0
2018-02-22T05:29:04.492Z,0
2018-02-22T05:29:45.092Z,0
2018-02-22T05:30:25.657Z,0
2018-02-22T05:31:06.218Z,0
2018-02-22T05:31:46.801Z,0
2018-02-22T05:32:27.361Z,0
2018-02-22T05:33:07.931Z,0
2018-02-22T05:33:48.495Z,0
2018-02-22T05:34:29.079Z,0
2018-02-22T05:35:09.624Z,0
2018-02-22T05:35:50.226Z,0
2018-02-22T05:36:31.033Z,0
2018-02-22T05:37:11.680Z,0
2018-02-22T05:37:52.238Z,0
2018-02-22T05:38:32.806Z,0
2018-02-22T05:39:13.368Z,0
2018-02-22T05:39:53.923Z,0
2018-02-22T05:40:34.475Z,0
2018-02-22T05:41:15.021Z,0
2018-02-22T05:41:55.571Z,0
2018-02-22T05:42:36.123Z,0
2018-02-22T05:43:16.673Z,0
2018-02-22T05:43:57.222Z,0
2018-02-22T05:44:37.928Z,0
2018-02-22T05:45:18.374Z,0
2018-02-22T05:45:58.942Z,0
2018-02-22T05:46:39.505Z,0
2018-02-22T05:47:20.066Z,0
2018-02-22T05:48:00.616Z,0
2018-02-22T05:48:41.172Z,0
2018-02-22T05:49:21.993Z,0
2018-02-22T05:50:02.538Z,0
2018-02-22T05:50:43.141Z,0
2018-02-22T05:51:23.664Z,0
2018-02-22T05:52:04.224Z,0
2018-02-22T05:52:44.781Z,0
2018-02-22T05:53:25.334Z,0
2018-02-22T05:54:05.886Z,0
2018-02-22T05:54:46.474Z,0
2018-02-22T05:55:27.015Z,0
2018-02-22T05:56:07.571Z,0
2018-02-22T05:56:48.121Z,0
2018-02-22T05:57:28.659Z,0
2018-02-22T05:58:09.213Z,0
2018-02-22T05:58:49.783Z,0
2018-02-22T05:59:30.342Z,0
2018-02-22T06:00:10.911Z,0
2018-02-22T06:00:51.498Z,0
2018-02-22T06:01:32.054Z,0
2018-02-22T06:02:12.603Z,0
2018-02-22T06:02:53.166Z,0
2018-02-22T06:03:33.706Z,0
2018-02-22T06:04:14.267Z,0
2018-02-22T06:04:54.819Z,0
2018-02-22T06:05:35.372Z,0
2018-02-22T06:06:15.925Z,0
2018-02-22T06:06:56.477Z,5
2018-02-22T06:07:37.019Z,5
2018-02-22T06:08:17.586Z,5
2018-02-22T06:08:58.143Z,5
2018-02-22T06:09:38.738Z,5
2018-02-22T06:10:19.303Z,5
2018-02-22T06:10:59.859Z,5
2018-02-22T06:11:40.409Z,5
2018-02-22T06:12:20.949Z,5
2018-02-22T06:13:01.501Z,5
2018-02-22T06:13:42.064Z,5
2018-02-22T06:14:22.620Z,5
2018-02-22T06:15:03.182Z,5
2018-02-22T06:15:43.727Z,10
2018-02-22T06:16:24.288Z,10
2018-02-22T06:17:04.847Z,10
2018-02-22T06:17:45.399Z,10
2018-02-22T06:18:25.963Z,10
2018-02-22T06:19:06.493Z,10
2018-02-22T06:19:47.035Z,10
2018-02-22T06:20:27.586Z,10
2018-02-22T06:21:08.143Z,10
2018-02-22T06:21:48.717Z,10
2018-02-22T06:22:29.273Z,15
2018-02-22T06:23:09.834Z,15
2018-02-22T06:23:50.458Z,15
2018-02-22T06:24:31.041Z,15
2018-02-22T06:25:11.593Z,15
2018-02-22T06:25:52.161Z,15
2018-02-22T06:26:32.714Z,15
2018-02-22T06:27:13.258Z,15
2018-02-22T06:27:53.831Z,15
2018-02-22T06:28:34.382Z,20
2018-02-22T06:29:14.949Z,20
2018-02-22T06:29:55.504Z,20
2018-02-22T06:30:36.055Z,20
2018-02-22T06:31:16.619Z,20
2018-02-22T06:31:57.178Z,20
2018-02-22T06:32:37.721Z,20
2018-02-22T06:33:18.277Z,20
2018-02-22T06:33:58.862Z,25
2018-02-22T06:34:39.396Z,25
2018-02-22T06:35:19.986Z,25
2018-02-22T06:36:00.549Z,25
2018-02-22T06:36:41.104Z,25
2018-02-22T06:37:21.652Z,25
2018-02-22T06:38:02.201Z,25
2018-02-22T06:38:42.780Z,25
2018-02-22T06:39:23.326Z,30
2018-02-22T06:40:03.881Z,30
2018-02-22T06:40:44.521Z,30
2018-02-22T06:41:25.087Z,30
2018-02-22T06:42:05.638Z,30
2018-02-22T06:42:46.191Z,30
2018-02-22T06:43:26.741Z,30
2018-02-22T06:44:07.276Z,35
2018-02-22T06:44:47.828Z,35
2018-02-22T06:45:28.404Z,35
2018-02-22T06:46:08.955Z,35
2018-02-22T06:46:49.504Z,35
2018-02-22T06:47:30.051Z,35
2018-02-22T06:48:10.603Z,35
2018-02-22T06:48:51.148Z,35
2018-02-22T06:49:31.743Z,40
2018-02-22T06:50:12.302Z,40
2018-02-22T06:50:52.885Z,40
2018-02-22T06:51:33.462Z,40
2018-02-22T06:52:14.113Z,40
2018-02-22T06:52:55.291Z,40
2018-02-22T06:53:36.298Z,40
2018-02-22T06:54:17.237Z,45
2018-02-22T06:54:57.825Z,45
2018-02-22T06:55:39.408Z,45
2018-02-22T06:56:20.088Z,45
2018-02-22T06:57:00.656Z,45
2018-02-22T06:57:41.217Z,45
2018-02-22T06:58:21.797Z,45
2018-02-22T06:59:02.961Z,45
2018-02-22T06:59:43.836Z,50
2018-02-22T07:00:24.826Z,50
2018-02-22T07:01:05.851Z,50
2018-02-22T07:01:46.768Z,50
2018-02-22T07:02:27.715Z,50
2018-02-22T07:03:09.035Z,50
2018-02-22T07:03:49.580Z,55
2018-02-22T07:04:30.147Z,55
2018-02-22T07:05:10.706Z,55
2018-02-22T07:05:52.151Z,55
2018-02-22T07:06:32.981Z,55
2018-02-22T07:07:13.953Z,55
2018-02-22T07:07:54.799Z,55
2018-02-22T07:08:35.627Z,60
2018-02-22T07:09:16.426Z,60
2018-02-22T07:09:57.212Z,60
2018-02-22T07:10:41.072Z,60
2018-02-22T07:11:21.765Z,60
2018-02-22T07:12:02.322Z,65
2018-02-22T07:12:42.881Z,65
2018-02-22T07:13:23.424Z,65
2018-02-22T07:14:04.381Z,65
2018-02-22T07:14:45.205Z,65
2018-02-22T07:15:26.225Z,65
2018-02-22T07:16:06.829Z,65
2018-02-22T07:16:47.370Z,65
2018-02-22T07:17:27.928Z,70
2018-02-22T07:18:08.467Z,70
2018-02-22T07:18:49.033Z,70
2018-02-22T07:19:29.583Z,70
2018-02-22T07:20:10.141Z,70
2018-02-22T07:20:50.728Z,75
2018-02-22T07:21:31.308Z,75
2018-02-22T07:22:11.884Z,75
2018-02-22T07:22:52.448Z,75
2018-02-22T07:23:33.000Z,75
2018-02-22T07:24:13.593Z,75
2018-02-22T07:24:54.147Z,80
2018-02-22T07:25:34.726Z,80
2018-02-22T07:26:15.568Z,80
2018-02-22T07:26:56.219Z,80
2018-02-22T07:27:36.781Z,80
2018-02-22T07:28:17.321Z,80
2018-02-22T07:28:57.893Z,80
2018-02-22T07:29:38.470Z,80
2018-02-22T07:30:19.191Z,85
2018-02-22T07:30:59.776Z,85
2018-02-22T07:31:40.315Z,85
2018-02-22T07:32:21.013Z,85
2018-02-22T07:33:01.622Z,85
2018-02-22T07:33:42.142Z,85
2018-02-22T07:34:22.740Z,85
2018-02-22T07:35:03.341Z,85
2018-02-22T07:35:43.905Z,90
2018-02-22T07:36:24.480Z,90
2018-02-22T07:37:05.026Z,90
2018-02-22T07:37:45.601Z,90
2018-02-22T07:38:26.148Z,90
2018-02-22T07:39:06.724Z,90
2018-02-22T07:39:47.254Z,90
2018-02-22T07:40:27.808Z,95
2018-02-22T07:41:08.675Z,95
2018-02-22T07:41:49.226Z,95
2018-02-22T07:42:29.934Z,95
2018-02-22T07:43:10.515Z,95
2018-02-22T07:43:51.128Z,100
2018-02-22T07:44:31.693Z,95
2018-02-22T07:45:12.241Z,100
2018-02-22T07:45:52.797Z,100
2018-02-22T07:46:33.364Z,100
2018-02-22T07:47:13.959Z,100
2018-02-22T07:47:54.581Z,100
2018-02-22T07:48:35.168Z,100
2018-02-22T07:49:16.196Z,100
2018-02-22T07:49:56.778Z,100
2018-02-22T07:50:37.356Z,105
2018-02-22T07:51:18.119Z,105
2018-02-22T07:51:58.876Z,105
2018-02-22T07:52:39.735Z,105
2018-02-22T07:53:20.296Z,110
2018-02-22T07:54:01.274Z,105
2018-02-22T07:54:42.040Z,110
2018-02-22T07:55:23.413Z,105
2018-02-22T07:56:04.268Z,105
2018-02-22T07:56:46.146Z,110
2018-02-22T07:57:27.085Z,110
2018-02-22T07:58:08.165Z,110
2018-02-22T07:58:48.778Z,115
2018-02-22T07:59:29.419Z,115
2018-02-22T08:00:10.180Z,115
2018-02-22T08:00:51.002Z,120
2018-02-22T08:01:31.745Z,120
2018-02-22T08:02:12.376Z,120
2018-02-22T08:02:53.341Z,115
2018-02-22T08:03:34.292Z,115
2018-02-22T08:04:15.265Z,120
2018-02-22T08:04:56.707Z,120
2018-02-22T08:05:38.995Z,120
2018-02-22T08:06:19.536Z,115
2018-02-22T08:07:00.320Z,125
2018-02-22T08:07:40.863Z,125
2018-02-22T08:08:21.766Z,125
2018-02-22T08:09:02.317Z,130
2018-02-22T08:09:42.872Z,130
2018-02-22T08:10:24.002Z,130
2018-02-22T08:11:04.977Z,135
2018-02-22T08:11:45.543Z,155
2018-02-22T08:12:26.107Z,305
2018-02-22T08:13:06.687Z,575
2018-02-22T08:13:47.311Z,865
2018-02-22T08:14:27.934Z,1170
2018-02-22T08:15:08.616Z,1330
2018-02-22T08:15:49.171Z,1325
2018-02-22T08:16:29.847Z,1405
2018-02-22T08:17:10.532Z,1395
2018-02-22T08:17:51.307Z,1405
2018-02-22T08:18:31.989Z,1410
2018-02-22T08:19:12.766Z,1400
2018-02-22T08:19:53.322Z,1385
2018-02-22T08:20:34.127Z,1375
2018-02-22T08:21:14.867Z,1375
2018-02-22T08:21:55.610Z,1350
2018-02-22T08:22:36.356Z,1340
2018-02-22T08:23:17.044Z,1370
2018-02-22T08:23:57.774Z,1385
2018-02-22T08:24:38.327Z,1375
2018-02-22T08:25:18.906Z,1380
2018-02-22T08:25:59.475Z,1375
2018-02-22T08:26:40.038Z,1365
2018-02-22T08:27:20.760Z,1365
2018-02-22T08:28:01.454Z,1400
2018-02-22T08:28:42.014Z,1430
2018-02-22T08:29:22.580Z,1430
2018-02-22T08:30:03.141Z,1455
2018-02-22T08:30:43.766Z,1415
2018-02-22T08:31:24.350Z,1395
2018-02-22T08:32:04.944Z,1345
2018-02-22T08:32:46.579Z,1420
2018-02-22T08:33:27.956Z,1450
2018-02-22T08:34:08.979Z,1470
2018-02-22T08:34:49.936Z,1455
2018-02-22T08:35:31.098Z,1465
2018-02-22T08:36:11.895Z,1500
2018-02-22T08:36:52.553Z,1450
2018-02-22T08:37:33.601Z,1400
2018-02-22T08:38:14.687Z,1390
2018-02-22T08:38:56.132Z,1405
2018-02-22T08:39:37.360Z,1400
2018-02-22T08:40:18.165Z,1440
2018-02-22T08:40:58.889Z,1410
2018-02-22T08:41:40.323Z,1395
2018-02-22T08:42:21.180Z,1375
2018-02-22T08:43:02.045Z,1355
2018-02-22T08:43:43.445Z,1440
2018-02-22T08:44:26.249Z,1465
2018-02-22T08:45:07.350Z,1445
2018-02-22T08:45:48.513Z,1470
2018-02-22T08:46:29.510Z,1450
2018-02-22T08:47:10.955Z,1405
2018-02-22T08:47:52.916Z,1400
2018-02-22T08:48:33.915Z,1420
2018-02-22T08:49:14.977Z,1445
2018-02-22T08:49:56.243Z,1420
2018-02-22T08:50:37.048Z,1435
2018-02-22T08:51:17.684Z,1420
2018-02-22T08:51:58.437Z,1430
2018-02-22T08:52:39.151Z,1405
2018-02-22T08:53:20.035Z,1410
2018-02-22T08:54:01.443Z,1410
2018-02-22T08:54:43.085Z,1460
2018-02-22T08:55:24.369Z,1455
2018-02-22T08:56:04.941Z,1440
2018-02-22T08:56:45.505Z,1405
2018-02-22T08:57:26.094Z,1405
2018-02-22T08:58:06.653Z,1405
2018-02-22T08:58:47.226Z,1390
2018-02-22T08:59:27.812Z,1400
2018-02-22T09:00:08.370Z,1410
2018-02-22T09:00:48.979Z,1425
2018-02-22T09:01:29.566Z,1470
2018-02-22T09:02:10.135Z,1465
2018-02-22T09:02:50.697Z,1425
2018-02-22T09:03:31.286Z,1380
2018-02-22T09:04:11.866Z,1335
2018-02-22T09:04:52.418Z,1275
2018-02-22T09:05:32.982Z,1065
2018-02-22T09:06:13.543Z,780
2018-02-22T09:06:54.140Z,525
2018-02-22T09:07:34.889Z,415
2018-02-22T09:08:15.477Z,410
2018-02-22T09:08:56.049Z,390
2018-02-22T09:09:36.638Z,375
2018-02-22T09:10:17.206Z,370
2018-02-22T09:10:57.769Z,365
2018-02-22T09:11:38.341Z,345
2018-02-22T09:12:18.928Z,340
2018-02-22T09:12:59.498Z,325
2018-02-22T09:13:40.080Z,320
2018-02-22T09:14:20.733Z,315
2018-02-22T09:15:01.324Z,305
2018-02-22T09:15:41.938Z,300
2018-02-22T09:16:22.505Z,285
2018-02-22T09:17:03.170Z,285
2018-02-22T09:17:44.024Z,275
2018-02-22T09:18:24.559Z,270
2018-02-22T09:19:05.120Z,265
2018-02-22T09:19:45.676Z,260
2018-02-22T09:20:26.235Z,250
2018-02-22T09:21:06.790Z,240
2018-02-22T09:21:47.464Z,235
2018-02-22T09:22:28.000Z,235
2018-02-22T09:23:08.625Z,230
2018-02-22T09:23:49.236Z,220
2018-02-22T09:24:29.786Z,215
2018-02-22T09:25:10.366Z,210
2018-02-22T09:25:50.975Z,205
2018-02-22T09:26:31.513Z,205
2018-02-22T09:27:12.072Z,200
2018-02-22T09:27:52.656Z,195
2018-02-22T09:28:33.234Z,195
2018-02-22T09:29:13.843Z,185
2018-02-22T09:29:54.368Z,180
2018-02-22T09:30:34.959Z,175
2018-02-22T09:31:15.633Z,170
2018-02-22T09:31:56.197Z,170
2018-02-22T09:32:36.770Z,170
2018-02-22T09:33:17.373Z,165
2018-02-22T09:33:58.036Z,165
2018-02-22T09:34:38.614Z,165
2018-02-22T09:35:19.163Z,160
2018-02-22T09:35:59.725Z,160
2018-02-22T09:36:40.392Z,160
2018-02-22T09:37:21.516Z,155
2018-02-22T09:38:02.814Z,150
2018-02-22T09:38:43.810Z,150
2018-02-22T09:39:25.002Z,145
2018-02-22T09:40:05.943Z,145
2018-02-22T09:40:46.880Z,145
2018-02-22T09:41:27.527Z,145
2018-02-22T09:42:08.086Z,145
2018-02-22T09:42:48.636Z,140
2018-02-22T09:43:29.380Z,140
2018-02-22T09:44:09.941Z,140
2018-02-22T09:44:50.491Z,140
2018-02-22T09:45:31.038Z,140
2018-02-22T09:46:11.658Z,140
2018-02-22T09:46:52.205Z,140